createdAt,value
2018-12-05T00:00:58.846Z,18.54
2018-12-05T00:01:58.954Z,18.53
2018-12-05T00:02:58.846Z,18.57
2018-12-05T00:03:58.840Z,18.57
2018-12-05T00:04:58.912Z,18.57
2018-12-05T00:05:58.885Z,18.61
2018-12-05T00:06:58.785Z,18.65
2018-12-05T00:07:58.900Z,18.56
2018-12-05T00:08:58.853Z,18.54
2018-12-05T00:09:58.780Z,18.59
2018-12-05T00:10:58.796Z,18.54
2018-12-05T00:11:58.838Z,18.54
2018-12-05T00:12:58.808Z,18.51
2018-12-05T00:13:58.759Z,18.50
2018-12-05T00:14:58.737Z,18.51
2018-12-05T00:15:58.741Z,18.50
2018-12-05T00:16:58.727Z,18.50
2018-12-05T00:17:58.800Z,18.47
2018-12-05T00:18:58.661Z,18.53
2018-12-05T00:19:58.723Z,18.39
2018-12-05T00:20:58.650Z,18.42
2018-12-05T00:21:58.623Z,18.41
2018-12-05T00:22:58.626Z,18.42
2018-12-05T00:23:58.678Z,18.44
2018-12-05T00:24:58.600Z,18.41
2018-12-05T00:25:58.637Z,18.41
2018-12-05T00:26:58.817Z,18.44
2018-12-05T00:27:58.585Z,18.36
2018-12-05T00:28:58.679Z,18.41
2018-12-05T00:29:58.699Z,18.45
2018-12-05T00:30:58.547Z,18.39
2018-12-05T00:31:58.554Z,18.47
2018-12-05T00:32:58.558Z,18.47
2018-12-05T00:33:58.542Z,18.49
2018-12-05T00:34:58.515Z,18.50
2018-12-05T00:35:58.600Z,18.39
2018-12-05T00:36:58.477Z,18.41
2018-12-05T00:37:58.500Z,18.39
2018-12-05T00:38:58.556Z,18.49
2018-12-05T00:39:58.433Z,18.45
2018-12-05T00:40:58.585Z,18.45
2018-12-05T00:41:58.447Z,18.45
2018-12-05T00:42:58.486Z,18.38
2018-12-05T00:43:58.458Z,18.44
2018-12-05T00:44:59.418Z,18.41
2018-12-05T00:45:58.414Z,18.45
2018-12-05T00:46:58.373Z,18.41
2018-12-05T00:47:58.458Z,18.49
2018-12-05T00:48:58.396Z,18.45
2018-12-05T00:49:58.412Z,18.49
2018-12-05T00:50:58.439Z,18.51
2018-12-05T00:51:58.397Z,18.49
2018-12-05T00:52:58.316Z,18.47
2018-12-05T00:53:58.419Z,18.53
2018-12-05T00:54:58.283Z,18.51
2018-12-05T00:55:58.293Z,18.47
2018-12-05T00:56:58.337Z,18.44
2018-12-05T00:57:58.242Z,18.44
2018-12-05T00:58:58.253Z,18.53
2018-12-05T00:59:58.293Z,18.44
2018-12-05T01:00:58.218Z,18.44
2018-12-05T01:01:58.218Z,18.54
2018-12-05T01:02:58.316Z,18.53
2018-12-05T01:03:58.190Z,18.49
2018-12-05T01:04:58.193Z,18.50
2018-12-05T01:05:58.256Z,18.51
2018-12-05T01:06:58.158Z,18.51
2018-12-05T01:07:58.166Z,18.54
2018-12-05T01:08:58.175Z,18.56
2018-12-05T01:09:58.120Z,18.57
2018-12-05T01:10:58.106Z,18.61
2018-12-05T01:11:58.222Z,18.66
2018-12-05T01:12:58.105Z,18.61
2018-12-05T01:13:58.086Z,18.66
2018-12-05T01:14:59.165Z,18.60
2018-12-05T01:15:58.059Z,18.69
2018-12-05T01:16:58.043Z,18.65
2018-12-05T01:17:58.106Z,18.65
2018-12-05T01:18:58.037Z,18.56
2018-12-05T01:19:58.022Z,18.60
2018-12-05T01:20:58.149Z,18.57
2018-12-05T01:21:58.050Z,18.57
2018-12-05T01:22:58.011Z,18.53
2018-12-05T01:23:58.074Z,18.59
2018-12-05T01:24:57.976Z,18.65
2018-12-05T01:25:57.958Z,18.66
2018-12-05T01:26:57.979Z,18.61
2018-12-05T01:27:57.942Z,18.74
2018-12-05T01:29:00.074Z,18.69
2018-12-05T01:29:58.061Z,18.71
2018-12-05T01:30:57.955Z,18.75
2018-12-05T01:31:57.944Z,18.72
2018-12-05T01:32:57.907Z,18.72
2018-12-05T01:33:57.884Z,18.72
2018-12-05T01:34:57.864Z,18.68
2018-12-05T01:35:57.852Z,18.68
2018-12-05T01:36:57.896Z,18.66
2018-12-05T01:37:57.938Z,18.63
2018-12-05T01:38:57.870Z,18.66
2018-12-05T01:39:57.857Z,18.68
2018-12-05T01:40:57.830Z,18.63
2018-12-05T01:41:57.828Z,18.65
2018-12-05T01:42:57.887Z,18.65
2018-12-05T01:43:57.785Z,18.65
2018-12-05T01:44:57.797Z,18.69
2018-12-05T01:45:57.754Z,18.60
2018-12-05T01:46:57.715Z,18.63
2018-12-05T01:47:57.811Z,18.66
2018-12-05T01:48:57.701Z,18.63
2018-12-05T01:49:57.689Z,18.60
2018-12-05T01:50:57.741Z,18.65
2018-12-05T01:51:57.675Z,18.63
2018-12-05T01:52:57.664Z,18.60
2018-12-05T01:53:57.690Z,18.66
2018-12-05T01:54:57.660Z,18.65
2018-12-05T01:55:57.638Z,18.68
2018-12-05T01:56:57.717Z,18.57
2018-12-05T01:57:57.640Z,18.65
2018-12-05T01:58:57.601Z,18.59
2018-12-05T01:59:58.698Z,18.56
2018-12-05T02:00:57.583Z,18.60
2018-12-05T02:01:57.565Z,18.68
2018-12-05T02:02:57.576Z,18.60
2018-12-05T02:03:57.551Z,18.65
2018-12-05T02:04:57.539Z,18.61
2018-12-05T02:05:57.620Z,18.60
2018-12-05T02:06:57.525Z,18.56
2018-12-05T02:07:57.523Z,18.63
2018-12-05T02:08:57.646Z,18.61
2018-12-05T02:09:57.496Z,18.57
2018-12-05T02:10:57.505Z,18.57
2018-12-05T02:11:57.587Z,18.56
2018-12-05T02:12:57.448Z,18.57
2018-12-05T02:13:57.457Z,18.51
2018-12-05T02:14:57.458Z,18.53
2018-12-05T02:15:57.527Z,18.54
2018-12-05T02:16:57.418Z,18.51
2018-12-05T02:17:57.526Z,18.56
2018-12-05T02:18:57.404Z,18.51
2018-12-05T02:19:57.386Z,18.45
2018-12-05T02:20:57.491Z,18.51
2018-12-05T02:21:57.369Z,18.45
2018-12-05T02:22:57.361Z,18.45
2018-12-05T02:23:57.447Z,18.39
2018-12-05T02:24:57.386Z,18.44
2018-12-05T02:25:57.322Z,18.38
2018-12-05T02:26:57.331Z,18.47
2018-12-05T02:27:57.370Z,18.42
2018-12-05T02:28:57.270Z,18.38
2018-12-05T02:29:57.284Z,18.41
2018-12-05T02:30:57.281Z,18.41
2018-12-05T02:31:57.282Z,18.39
2018-12-05T02:32:58.057Z,18.41
2018-12-05T02:33:57.337Z,18.41
2018-12-05T02:34:57.214Z,18.31
2018-12-05T02:35:57.292Z,18.34
2018-12-05T02:36:57.212Z,18.31
2018-12-05T02:37:57.238Z,18.36
2018-12-05T02:38:57.288Z,18.39
2018-12-05T02:39:57.185Z,18.42
2018-12-05T02:40:57.192Z,18.31
2018-12-05T02:41:57.158Z,18.36
2018-12-05T02:42:57.262Z,18.31
2018-12-05T02:43:57.139Z,18.44
2018-12-05T02:44:57.541Z,18.35
2018-12-05T02:45:57.135Z,18.34
2018-12-05T02:46:57.087Z,18.36
2018-12-05T02:47:57.202Z,18.45
2018-12-05T02:48:57.094Z,18.45
2018-12-05T02:49:57.076Z,18.44
2018-12-05T02:50:57.125Z,18.45
2018-12-05T02:51:57.037Z,18.34
2018-12-05T02:52:57.058Z,18.32
2018-12-05T02:53:57.045Z,18.41
2018-12-05T02:54:57.073Z,18.39
2018-12-05T02:55:57.016Z,18.41
2018-12-05T02:56:57.101Z,18.42
2018-12-05T02:57:57.024Z,18.47
2018-12-05T02:58:57.013Z,18.49
2018-12-05T02:59:56.982Z,18.44
2018-12-05T03:00:57.151Z,18.41
2018-12-05T03:01:56.950Z,18.42
2018-12-05T03:02:56.978Z,18.47
2018-12-05T03:03:56.982Z,18.50
2018-12-05T03:04:56.986Z,18.50
2018-12-05T03:05:57.028Z,18.53
2018-12-05T03:06:56.947Z,18.51
2018-12-05T03:07:56.854Z,18.49
2018-12-05T03:08:56.862Z,18.57
2018-12-05T03:09:56.964Z,18.50
2018-12-05T03:10:56.826Z,18.60
2018-12-05T03:11:56.830Z,18.59
2018-12-05T03:12:56.924Z,18.59
2018-12-05T03:13:56.814Z,18.61
2018-12-05T03:14:56.901Z,18.66
2018-12-05T03:15:56.787Z,18.65
2018-12-05T03:16:56.764Z,18.63
2018-12-05T03:17:56.771Z,18.69
2018-12-05T03:18:56.772Z,18.66
2018-12-05T03:19:56.734Z,18.68
2018-12-05T03:20:56.766Z,18.60
2018-12-05T03:21:56.771Z,18.65
2018-12-05T03:22:56.702Z,18.71
2018-12-05T03:23:56.798Z,18.72
2018-12-05T03:24:56.688Z,18.71
2018-12-05T03:25:56.667Z,18.72
2018-12-05T03:26:56.679Z,18.71
2018-12-05T03:27:56.719Z,18.82
2018-12-05T03:28:56.698Z,18.79
2018-12-05T03:29:56.674Z,18.79
2018-12-05T03:30:56.768Z,18.82
2018-12-05T03:31:56.617Z,18.76
2018-12-05T03:32:56.716Z,18.79
2018-12-05T03:33:56.574Z,18.87
2018-12-05T03:34:56.579Z,18.76
2018-12-05T03:35:56.571Z,18.74
2018-12-05T03:36:56.750Z,18.90
2018-12-05T03:37:56.741Z,18.84
2018-12-05T03:38:56.571Z,18.84
2018-12-05T03:39:56.536Z,18.87
2018-12-05T03:40:56.524Z,18.84
2018-12-05T03:41:56.503Z,18.82
2018-12-05T03:42:56.511Z,18.74
2018-12-05T03:43:56.492Z,18.87
2018-12-05T03:44:56.549Z,18.90
2018-12-05T03:45:56.509Z,18.84
2018-12-05T03:46:56.480Z,18.82
2018-12-05T03:47:56.453Z,18.87
2018-12-05T03:48:56.483Z,18.79
2018-12-05T03:49:56.502Z,18.87
2018-12-05T03:50:56.397Z,18.78
2018-12-05T03:51:56.511Z,18.82
2018-12-05T03:52:56.449Z,18.81
2018-12-05T03:53:56.390Z,18.84
2018-12-05T03:54:56.460Z,18.81
2018-12-05T03:55:57.388Z,18.84
2018-12-05T03:56:56.355Z,18.71
2018-12-05T03:57:56.378Z,18.69
2018-12-05T03:58:56.412Z,18.78
2018-12-05T03:59:56.318Z,18.74
2018-12-05T04:00:56.328Z,18.74
2018-12-05T04:01:56.298Z,18.63
2018-12-05T04:02:56.366Z,18.74
2018-12-05T04:03:56.325Z,18.72
2018-12-05T04:04:56.297Z,18.74
2018-12-05T04:05:56.255Z,18.75
2018-12-05T04:06:56.369Z,18.71
2018-12-05T04:07:56.418Z,18.74
2018-12-05T04:08:56.286Z,18.71
2018-12-05T04:09:56.315Z,18.63
2018-12-05T04:10:56.243Z,18.60
2018-12-05T04:11:56.189Z,18.69
2018-12-05T04:12:56.257Z,18.65
2018-12-05T04:13:56.261Z,18.60
2018-12-05T04:14:56.162Z,18.53
2018-12-05T04:15:56.188Z,18.53
2018-12-05T04:16:56.123Z,18.59
2018-12-05T04:17:56.207Z,18.57
2018-12-05T04:18:56.124Z,18.53
2018-12-05T04:19:56.133Z,18.57
2018-12-05T04:20:56.092Z,18.57
2018-12-05T04:21:56.176Z,18.54
2018-12-05T04:22:56.164Z,18.54
2018-12-05T04:23:56.074Z,18.57
2018-12-05T04:24:56.044Z,18.57
2018-12-05T04:25:56.108Z,18.50
2018-12-05T04:26:56.019Z,18.49
2018-12-05T04:27:56.181Z,18.57
2018-12-05T04:28:56.130Z,18.54
2018-12-05T04:29:55.989Z,18.53
2018-12-05T04:30:56.044Z,18.57
2018-12-05T04:31:55.993Z,18.56
2018-12-05T04:32:55.963Z,18.53
2018-12-05T04:33:56.006Z,18.57
2018-12-05T04:34:56.003Z,18.59
2018-12-05T04:35:55.953Z,18.63
2018-12-05T04:36:56.043Z,18.60
2018-12-05T04:37:56.026Z,18.61
2018-12-05T04:38:55.903Z,18.57
2018-12-05T04:39:55.959Z,18.54
2018-12-05T04:40:55.986Z,18.50
2018-12-05T04:41:55.893Z,18.51
2018-12-05T04:42:55.996Z,18.49
2018-12-05T04:43:55.909Z,18.47
2018-12-05T04:44:55.868Z,18.42
2018-12-05T04:45:55.953Z,18.41
2018-12-05T04:46:56.003Z,18.39
2018-12-05T04:47:55.814Z,18.39
2018-12-05T04:48:55.802Z,18.35
2018-12-05T04:49:55.791Z,18.34
2018-12-05T04:50:55.765Z,18.29
2018-12-05T04:51:55.817Z,18.27
2018-12-05T04:52:55.744Z,18.38
2018-12-05T04:53:55.749Z,18.32
2018-12-05T04:54:55.852Z,18.31
2018-12-05T04:55:55.860Z,18.41
2018-12-05T04:56:55.766Z,18.35
2018-12-05T04:57:55.761Z,18.38
2018-12-05T04:58:55.721Z,18.31
2018-12-05T04:59:55.687Z,18.38
2018-12-05T05:00:55.688Z,18.31
2018-12-05T05:01:55.643Z,18.26
2018-12-05T05:02:55.731Z,18.31
2018-12-05T05:03:55.615Z,18.34
2018-12-05T05:04:55.616Z,18.34
2018-12-05T05:05:55.598Z,18.32
2018-12-05T05:06:55.591Z,18.39
2018-12-05T05:07:55.582Z,18.34
2018-12-05T05:08:55.572Z,18.36
2018-12-05T05:09:55.629Z,18.42
2018-12-05T05:10:55.560Z,18.41
2018-12-05T05:11:55.614Z,18.45
2018-12-05T05:12:55.562Z,18.49
2018-12-05T05:13:55.514Z,18.57
2018-12-05T05:14:55.519Z,18.60
2018-12-05T05:15:55.580Z,18.57
2018-12-05T05:16:55.488Z,18.72
2018-12-05T05:17:55.595Z,18.69
2018-12-05T05:18:55.482Z,18.78
2018-12-05T05:19:55.473Z,18.78
2018-12-05T05:20:55.448Z,18.94
2018-12-05T05:21:55.530Z,18.94
2018-12-05T05:22:55.430Z,19.00
2018-12-05T05:23:55.443Z,19.05
2018-12-05T05:24:55.441Z,19.13
2018-12-05T05:25:55.377Z,19.19
2018-12-05T05:26:55.374Z,19.20
2018-12-05T05:27:55.403Z,19.23
2018-12-05T05:28:55.368Z,19.20
2018-12-05T05:29:55.422Z,19.25
2018-12-05T05:30:55.346Z,19.34
2018-12-05T05:31:55.354Z,19.27
2018-12-05T05:32:55.322Z,19.38
2018-12-05T05:33:55.355Z,19.27
2018-12-05T05:34:55.332Z,19.34
2018-12-05T05:35:55.384Z,19.35
2018-12-05T05:36:55.300Z,19.40
2018-12-05T05:37:55.256Z,19.40
2018-12-05T05:38:55.256Z,19.45
2018-12-05T05:39:55.346Z,19.37
2018-12-05T05:40:55.248Z,19.27
2018-12-05T05:41:55.270Z,19.30
2018-12-05T05:42:55.215Z,19.30
2018-12-05T05:43:55.197Z,19.23
2018-12-05T05:44:55.193Z,19.27
2018-12-05T05:45:55.307Z,19.23
2018-12-05T05:46:55.185Z,19.17
2018-12-05T05:47:55.247Z,19.16
2018-12-05T05:48:55.162Z,19.10
2018-12-05T05:49:55.143Z,19.05
2018-12-05T05:50:55.134Z,19.09
2018-12-05T05:51:55.134Z,18.93
2018-12-05T05:52:55.114Z,18.90
2018-12-05T05:53:55.090Z,18.87
2018-12-05T05:54:55.211Z,18.78
2018-12-05T05:55:55.069Z,18.75
2018-12-05T05:56:55.065Z,18.65
2018-12-05T05:57:55.164Z,18.60
2018-12-05T05:58:55.060Z,18.65
2018-12-05T05:59:55.056Z,18.54
2018-12-05T06:00:55.014Z,18.50
2018-12-05T06:01:55.010Z,18.51
2018-12-05T06:02:54.999Z,18.32
2018-12-05T06:03:55.105Z,18.35
2018-12-05T06:04:54.973Z,18.36
2018-12-05T06:05:55.025Z,18.38
2018-12-05T06:06:54.952Z,18.24
2018-12-05T06:07:54.983Z,18.13
2018-12-05T06:08:54.939Z,18.10
2018-12-05T06:09:54.977Z,18.26
2018-12-05T06:10:54.910Z,18.17
2018-12-05T06:11:55.014Z,18.17
2018-12-05T06:12:54.890Z,18.23
2018-12-05T06:13:54.873Z,18.24
2018-12-05T06:14:54.883Z,18.26
2018-12-05T06:15:54.980Z,18.29
2018-12-05T06:16:54.859Z,18.32
2018-12-05T06:17:54.993Z,18.29
2018-12-05T06:18:54.859Z,18.34
2018-12-05T06:19:54.817Z,18.45
2018-12-05T06:20:54.812Z,18.53
2018-12-05T06:21:54.919Z,18.45
2018-12-05T06:22:56.061Z,18.47
2018-12-05T06:23:54.832Z,18.49
2018-12-05T06:24:54.767Z,18.44
2018-12-05T06:25:55.101Z,18.53
2018-12-05T06:26:54.735Z,18.50
2018-12-05T06:27:54.774Z,18.42
2018-12-05T06:28:54.723Z,18.47
2018-12-05T06:29:54.749Z,18.44
2018-12-05T06:30:54.815Z,18.41
2018-12-05T06:31:54.733Z,18.36
2018-12-05T06:32:54.699Z,18.42
2018-12-05T06:33:54.756Z,18.41
2018-12-05T06:34:54.660Z,18.36
2018-12-05T06:35:54.642Z,18.41
2018-12-05T06:36:54.655Z,18.27
2018-12-05T06:37:54.719Z,18.35
2018-12-05T06:38:54.617Z,18.32
2018-12-05T06:39:54.721Z,18.31
2018-12-05T06:40:54.587Z,18.34
2018-12-05T06:41:54.582Z,18.35
2018-12-05T06:42:54.694Z,18.36
2018-12-05T06:43:54.575Z,18.35
2018-12-05T06:44:54.543Z,18.31
2018-12-05T06:45:54.581Z,18.41
2018-12-05T06:46:54.525Z,18.49
2018-12-05T06:47:54.523Z,18.49
2018-12-05T06:48:54.504Z,18.60
2018-12-05T06:49:54.502Z,18.71
2018-12-05T06:50:54.483Z,18.75
2018-12-05T06:51:54.478Z,18.79
2018-12-05T06:52:54.565Z,18.76
2018-12-05T06:53:54.453Z,18.84
2018-12-05T06:54:54.487Z,18.86
2018-12-05T06:55:54.425Z,18.99
2018-12-05T06:56:54.428Z,18.97
2018-12-05T06:57:54.416Z,18.96
2018-12-05T06:58:54.425Z,18.90
2018-12-05T06:59:54.378Z,19.02
2018-12-05T07:00:54.451Z,18.96
2018-12-05T07:01:54.354Z,19.06
2018-12-05T07:02:54.348Z,18.97
2018-12-05T07:03:54.400Z,18.94
2018-12-05T07:04:54.401Z,19.06
2018-12-05T07:05:54.316Z,18.93
2018-12-05T07:06:54.418Z,19.05
2018-12-05T07:07:54.320Z,18.93
2018-12-05T07:08:54.290Z,18.96
2018-12-05T07:09:54.287Z,18.86
2018-12-05T07:10:54.372Z,18.86
2018-12-05T07:11:54.250Z,18.81
2018-12-05T07:12:54.287Z,18.75
2018-12-05T07:13:54.251Z,18.75
2018-12-05T07:14:54.227Z,18.69
2018-12-05T07:15:54.224Z,18.65
2018-12-05T07:16:54.232Z,18.56
2018-12-05T07:17:54.191Z,18.53
2018-12-05T07:18:55.268Z,18.49
2018-12-05T07:19:54.171Z,18.45
2018-12-05T07:20:54.160Z,18.36
2018-12-05T07:21:54.179Z,18.34
2018-12-05T07:22:55.224Z,18.36
2018-12-05T07:23:55.633Z,18.29
2018-12-05T07:24:55.160Z,18.32
2018-12-05T07:25:54.109Z,18.39
2018-12-05T07:26:54.114Z,18.45
2018-12-05T07:27:54.085Z,18.49
2018-12-05T07:28:55.186Z,18.54
2018-12-05T07:29:54.071Z,18.53
2018-12-05T07:30:55.209Z,18.61
2018-12-05T07:31:54.034Z,18.66
2018-12-05T07:32:54.020Z,18.68
2018-12-05T07:33:54.789Z,18.63
2018-12-05T07:34:55.151Z,18.68
2018-12-05T07:35:54.006Z,18.68
2018-12-05T07:36:55.093Z,18.66
2018-12-05T07:37:53.962Z,18.75
2018-12-05T07:38:53.967Z,18.69
2018-12-05T07:39:55.187Z,18.69
2018-12-05T07:40:53.952Z,18.72
2018-12-05T07:41:53.932Z,18.75
2018-12-05T07:42:54.248Z,18.71
2018-12-05T07:43:53.915Z,18.72
2018-12-05T07:44:53.907Z,18.76
2018-12-05T07:45:54.991Z,18.75
2018-12-05T07:46:53.913Z,18.78
2018-12-05T07:47:53.872Z,18.72
2018-12-05T07:48:54.305Z,18.72
2018-12-05T07:49:53.851Z,18.72
2018-12-05T07:50:53.852Z,18.71
2018-12-05T07:51:54.232Z,18.71
2018-12-05T07:52:53.817Z,18.75
2018-12-05T07:53:53.822Z,18.87
2018-12-05T07:54:54.897Z,18.81
2018-12-05T07:55:53.792Z,18.82
2018-12-05T07:56:53.785Z,18.87
2018-12-05T07:57:53.892Z,18.81
2018-12-05T07:58:53.754Z,18.86
2018-12-05T07:59:53.740Z,18.84
2018-12-05T08:00:53.732Z,18.84
2018-12-05T08:01:53.841Z,18.76
2018-12-05T08:02:53.734Z,18.82
2018-12-05T08:03:53.859Z,18.90
2018-12-05T08:04:53.682Z,18.76
2018-12-05T08:05:53.827Z,18.84
2018-12-05T08:06:53.789Z,18.84
2018-12-05T08:07:53.655Z,18.89
2018-12-05T08:08:53.637Z,18.82
2018-12-05T08:09:53.824Z,18.87
2018-12-05T08:10:53.649Z,18.75
2018-12-05T08:11:53.606Z,18.84
2018-12-05T08:12:53.769Z,18.89
2018-12-05T08:13:53.593Z,18.81
2018-12-05T08:14:53.560Z,18.82
2018-12-05T08:15:53.690Z,18.89
2018-12-05T08:16:53.726Z,18.87
2018-12-05T08:17:53.530Z,18.89
2018-12-05T08:18:53.695Z,18.82
2018-12-05T08:19:53.541Z,18.86
2018-12-05T08:20:53.509Z,18.87
2018-12-05T08:21:53.616Z,18.84
2018-12-05T08:22:53.491Z,18.86
2018-12-05T08:23:53.515Z,18.82
2018-12-05T08:24:53.605Z,18.84
2018-12-05T08:25:53.585Z,18.90
2018-12-05T08:26:53.481Z,18.84
2018-12-05T08:27:53.518Z,18.72
2018-12-05T08:28:53.439Z,18.72
2018-12-05T08:29:53.438Z,18.72
2018-12-05T08:30:53.576Z,18.68
2018-12-05T08:31:53.401Z,18.72
2018-12-05T08:32:53.388Z,18.69
2018-12-05T08:33:53.382Z,18.63
2018-12-05T08:34:53.511Z,18.63
2018-12-05T08:35:53.545Z,18.59
2018-12-05T08:36:53.652Z,18.49
2018-12-05T08:37:53.457Z,18.42
2018-12-05T08:38:53.325Z,18.50
2018-12-05T08:39:53.324Z,18.49
2018-12-05T08:40:53.522Z,18.49
2018-12-05T08:41:53.303Z,18.53
2018-12-05T08:42:53.417Z,18.59
2018-12-05T08:43:53.257Z,18.61
2018-12-05T08:44:53.252Z,18.69
2018-12-05T08:45:53.256Z,18.65
2018-12-05T08:46:53.375Z,18.69
2018-12-05T08:47:53.330Z,18.74
2018-12-05T08:48:56.343Z,18.76
2018-12-05T08:49:53.239Z,18.89
2018-12-05T08:50:53.217Z,18.79
2018-12-05T08:51:53.191Z,18.93
2018-12-05T08:52:53.308Z,18.90
2018-12-05T08:53:53.390Z,18.93
2018-12-05T08:54:53.202Z,18.94
2018-12-05T08:55:53.347Z,18.96
2018-12-05T08:56:53.150Z,18.94
2018-12-05T08:57:53.198Z,18.94
2018-12-05T08:58:53.122Z,19.10
2018-12-05T08:59:53.103Z,19.09
2018-12-05T09:00:53.214Z,19.10
2018-12-05T09:01:53.071Z,19.13
2018-12-05T09:02:53.068Z,18.96
2018-12-05T09:03:53.137Z,18.75
2018-12-05T09:04:53.361Z,18.20
2018-12-05T09:05:53.164Z,17.42
2018-12-05T09:06:53.032Z,17.17
2018-12-05T09:07:53.190Z,16.62
2018-12-05T09:08:52.999Z,15.98
2018-12-05T09:09:53.118Z,15.80
2018-12-05T09:10:52.986Z,15.74
2018-12-05T09:11:53.135Z,15.67
2018-12-05T09:12:52.995Z,15.77
2018-12-05T09:13:53.153Z,15.93
2018-12-05T09:14:52.955Z,16.10
2018-12-05T09:15:53.077Z,16.33
2018-12-05T09:16:52.918Z,16.67
2018-12-05T09:17:52.989Z,16.99
2018-12-05T09:18:52.903Z,17.40
2018-12-05T09:19:54.332Z,17.76
2018-12-05T09:20:52.869Z,18.03
2018-12-05T09:21:52.942Z,18.06
2018-12-05T09:22:52.857Z,18.32
2018-12-05T09:23:52.960Z,18.54
2018-12-05T09:24:52.833Z,18.66
2018-12-05T09:25:52.821Z,19.06
2018-12-05T09:26:52.897Z,19.17
2018-12-05T09:27:52.787Z,19.43
2018-12-05T09:28:57.242Z,19.53
2018-12-05T09:29:52.793Z,19.79
2018-12-05T09:30:52.955Z,19.93
2018-12-05T09:31:52.761Z,20.08
2018-12-05T09:32:52.755Z,20.20
2018-12-05T09:33:52.729Z,20.26
2018-12-05T09:34:52.751Z,20.37
2018-12-05T09:35:52.915Z,20.53
2018-12-05T09:36:52.720Z,20.66
2018-12-05T09:37:52.702Z,20.74
2018-12-05T09:38:52.687Z,20.76
2018-12-05T09:39:52.669Z,20.98
2018-12-05T09:40:52.765Z,20.94
2018-12-05T09:41:52.660Z,21.04
2018-12-05T09:42:52.645Z,21.15
2018-12-05T09:43:52.706Z,21.16
2018-12-05T09:44:52.620Z,20.97
2018-12-05T09:45:52.731Z,21.00
2018-12-05T09:46:52.596Z,20.86
2018-12-05T09:47:52.746Z,20.76
2018-12-05T09:48:52.584Z,20.76
2018-12-05T09:49:52.574Z,20.71
2018-12-05T09:50:52.676Z,20.64
2018-12-05T09:51:52.556Z,20.66
2018-12-05T09:52:52.706Z,20.58
2018-12-05T09:53:52.546Z,20.49
2018-12-05T09:54:52.631Z,20.53
2018-12-05T09:55:52.505Z,20.40
2018-12-05T09:56:52.504Z,20.38
2018-12-05T09:57:52.569Z,20.22
2018-12-05T09:58:53.062Z,20.29
2018-12-05T09:59:52.584Z,20.22
2018-12-05T10:00:52.456Z,20.18
2018-12-05T10:01:52.433Z,20.20
2018-12-05T10:02:52.524Z,20.07
2018-12-05T10:03:52.420Z,20.04
2018-12-05T10:04:52.555Z,20.07
2018-12-05T10:05:52.398Z,20.02
2018-12-05T10:06:52.362Z,20.10
2018-12-05T10:07:52.478Z,19.98
2018-12-05T10:08:52.371Z,20.01
2018-12-05T10:09:52.503Z,20.00
2018-12-05T10:10:52.359Z,19.97
2018-12-05T10:11:52.528Z,20.00
2018-12-05T10:12:52.321Z,19.89
2018-12-05T10:13:52.466Z,19.92
2018-12-05T10:14:52.284Z,19.95
2018-12-05T10:15:52.297Z,19.86
2018-12-05T10:16:52.378Z,19.85
2018-12-05T10:17:52.276Z,19.83
2018-12-05T10:18:52.252Z,19.86
2018-12-05T10:19:52.318Z,19.85
2018-12-05T10:20:55.988Z,19.72
2018-12-05T10:21:52.227Z,19.71
2018-12-05T10:22:52.216Z,19.71
2018-12-05T10:23:52.376Z,19.71
2018-12-05T10:24:52.182Z,19.67
2018-12-05T10:25:52.184Z,19.57
2018-12-05T10:26:52.183Z,19.57
2018-12-05T10:27:52.165Z,19.63
2018-12-05T10:28:52.340Z,19.57
2018-12-05T10:29:52.125Z,19.63
2018-12-05T10:30:52.293Z,19.56
2018-12-05T10:31:52.157Z,19.53
2018-12-05T10:32:52.283Z,19.49
2018-12-05T10:33:52.094Z,19.49
2018-12-05T10:34:52.093Z,19.45
2018-12-05T10:35:52.081Z,19.43
2018-12-05T10:36:52.147Z,19.43
2018-12-05T10:37:52.132Z,19.42
2018-12-05T10:38:52.049Z,19.40
2018-12-05T10:39:52.031Z,19.43
2018-12-05T10:40:52.030Z,19.49
2018-12-05T10:41:52.027Z,19.52
2018-12-05T10:42:52.006Z,19.40
2018-12-05T10:43:52.095Z,19.43
2018-12-05T10:44:51.999Z,19.47
2018-12-05T10:45:51.959Z,19.45
2018-12-05T10:46:51.972Z,19.40
2018-12-05T10:47:51.956Z,19.42
2018-12-05T10:48:52.023Z,19.45
2018-12-05T10:49:51.936Z,19.40
2018-12-05T10:50:52.080Z,19.45
2018-12-05T10:51:51.889Z,19.47
2018-12-05T10:52:52.118Z,19.52
2018-12-05T10:53:51.874Z,19.53
2018-12-05T10:54:51.867Z,19.57
2018-12-05T10:55:51.954Z,19.57
2018-12-05T10:56:51.884Z,19.63
2018-12-05T10:57:51.842Z,19.61
2018-12-05T10:58:51.863Z,19.55
2018-12-05T10:59:51.813Z,19.52
2018-12-05T11:00:52.701Z,19.61
2018-12-05T11:01:51.981Z,19.63
2018-12-05T11:02:51.811Z,19.52
2018-12-05T11:03:51.766Z,19.57
2018-12-05T11:04:51.819Z,19.55
2018-12-05T11:05:51.768Z,19.63
2018-12-05T11:06:51.730Z,19.68
2018-12-05T11:07:51.876Z,19.57
2018-12-05T11:08:51.711Z,19.67
2018-12-05T11:09:51.715Z,19.64
2018-12-05T11:10:51.845Z,19.65
2018-12-05T11:11:51.715Z,19.67
2018-12-05T11:12:51.716Z,19.71
2018-12-05T11:13:51.894Z,19.70
2018-12-05T11:14:51.642Z,19.74
2018-12-05T11:15:51.655Z,19.75
2018-12-05T11:16:51.672Z,19.71
2018-12-05T11:17:51.655Z,19.74
2018-12-05T11:18:51.606Z,19.82
2018-12-05T11:19:51.769Z,19.89
2018-12-05T11:20:51.587Z,19.90
2018-12-05T11:21:51.589Z,19.89
2018-12-05T11:22:51.650Z,19.83
2018-12-05T11:23:51.575Z,19.85
2018-12-05T11:24:51.556Z,19.92
2018-12-05T11:25:52.711Z,19.86
2018-12-05T11:26:51.528Z,19.74
2018-12-05T11:27:51.525Z,19.74
2018-12-05T11:28:51.613Z,19.71
2018-12-05T11:29:51.496Z,19.74
2018-12-05T11:30:51.548Z,19.67
2018-12-05T11:31:51.485Z,19.70
2018-12-05T11:32:52.589Z,19.64
2018-12-05T11:33:51.459Z,19.71
2018-12-05T11:34:51.582Z,19.64
2018-12-05T11:35:51.454Z,19.43
2018-12-05T11:36:51.428Z,19.27
2018-12-05T11:37:51.518Z,18.75
2018-12-05T11:38:51.401Z,18.38
2018-12-05T11:39:51.392Z,17.90
2018-12-05T11:40:52.478Z,17.43
2018-12-05T11:41:51.372Z,17.28
2018-12-05T11:42:51.362Z,17.25
2018-12-05T11:43:51.350Z,17.30
2018-12-05T11:44:52.433Z,17.35
2018-12-05T11:45:51.341Z,17.43
2018-12-05T11:46:51.368Z,17.57
2018-12-05T11:47:51.428Z,17.84
2018-12-05T11:48:51.291Z,18.03
2018-12-05T11:49:51.355Z,18.20
2018-12-05T11:50:51.288Z,18.32
2018-12-05T11:51:52.830Z,18.61
2018-12-05T11:52:51.261Z,18.68
2018-12-05T11:53:51.396Z,18.81
2018-12-05T11:54:51.415Z,18.96
2018-12-05T11:55:51.229Z,19.15
2018-12-05T11:56:51.215Z,19.38
2018-12-05T11:57:52.674Z,19.52
2018-12-05T11:58:51.197Z,19.75
2018-12-05T11:59:51.191Z,19.82
2018-12-05T12:00:51.156Z,20.07
2018-12-05T12:01:51.248Z,20.18
2018-12-05T12:02:51.154Z,20.29
2018-12-05T12:03:51.167Z,20.41
2018-12-05T12:04:51.660Z,20.42
2018-12-05T12:05:51.131Z,20.61
2018-12-05T12:06:51.198Z,20.67
2018-12-05T12:07:51.112Z,20.76
2018-12-05T12:08:51.094Z,20.64
2018-12-05T12:09:51.089Z,20.72
2018-12-05T12:10:51.076Z,20.57
2018-12-05T12:11:51.200Z,20.29
2018-12-05T12:12:51.215Z,20.10
2018-12-05T12:13:51.123Z,20.07
2018-12-05T12:14:51.132Z,20.11
2018-12-05T12:15:51.153Z,20.16
2018-12-05T12:16:51.003Z,20.32
2018-12-05T12:17:51.173Z,20.26
2018-12-05T12:18:51.081Z,20.41
2018-12-05T12:19:50.963Z,20.67
2018-12-05T12:20:51.011Z,20.88
2018-12-05T12:21:50.996Z,21.12
2018-12-05T12:22:50.931Z,21.34
2018-12-05T12:23:51.047Z,21.21
2018-12-05T12:24:50.923Z,21.45
2018-12-05T12:25:50.960Z,21.40
2018-12-05T12:26:50.895Z,21.48
2018-12-05T12:27:50.880Z,21.48
2018-12-05T12:28:50.868Z,21.61
2018-12-05T12:29:50.897Z,21.70
2018-12-05T12:30:50.859Z,21.67
2018-12-05T12:31:50.829Z,21.71
2018-12-05T12:32:51.957Z,21.66
2018-12-05T12:33:50.836Z,21.68
2018-12-05T12:34:50.826Z,21.73
2018-12-05T12:35:50.990Z,21.77
2018-12-05T12:36:50.784Z,21.74
2018-12-05T12:37:50.805Z,21.77
2018-12-05T12:38:50.910Z,21.64
2018-12-05T12:39:50.753Z,21.59
2018-12-05T12:40:50.754Z,21.61
2018-12-05T12:41:50.748Z,21.52
2018-12-05T12:42:50.734Z,21.48
2018-12-05T12:43:50.756Z,21.43
2018-12-05T12:44:50.702Z,21.43
2018-12-05T12:45:50.685Z,21.27
2018-12-05T12:46:50.672Z,21.23
2018-12-05T12:47:50.680Z,21.16
2018-12-05T12:48:50.666Z,21.08
2018-12-05T12:49:50.656Z,21.00
2018-12-05T12:50:50.653Z,20.93
2018-12-05T12:51:50.640Z,20.82
2018-12-05T12:52:50.649Z,20.76